sensor_id;sensor_type;location;lat;lon;timestamp;P1;durP1;ratioP1;P2;durP2;ratioP2
14007;SDS011;61651;45.508;12.232;2023-02-15T00:00:51;79.03;;;51.57;;
14007;SDS011;61651;45.508;12.232;2023-02-15T00:03:54;69.97;;;48.77;;
14007;SDS011;61651;45.508;12.232;2023-02-15T00:06:58;65.50;;;50.13;;
14007;SDS011;61651;45.508;12.232;2023-02-15T00:10:00;66.50;;;50.50;;
14007;SDS011;61651;45.508;12.232;2023-02-15T00:13:02;67.83;;;50.90;;
14007;SDS011;61651;45.508;12.232;2023-02-15T00:16:05;71.33;;;50.83;;
14007;SDS011;61651;45.508;12.232;2023-02-15T00:19:09;68.63;;;51.70;;
14007;SDS011;61651;45.508;12.232;2023-02-15T00:22:13;67.70;;;49.47;;
14007;SDS011;61651;45.508;12.232;2023-02-15T00:25:15;82.17;;;55.07;;
14007;SDS011;61651;45.508;12.232;2023-02-15T00:28:17;74.07;;;53.93;;
14007;SDS011;61651;45.508;12.232;2023-02-15T00:31:19;77.17;;;53.43;;
14007;SDS011;61651;45.508;12.232;2023-02-15T00:34:22;70.37;;;51.47;;
14007;SDS011;61651;45.508;12.232;2023-02-15T00:37:27;71.40;;;53.40;;
14007;SDS011;61651;45.508;12.232;2023-02-15T00:40:29;77.33;;;56.37;;
14007;SDS011;61651;45.508;12.232;2023-02-15T00:43:31;73.63;;;55.00;;
14007;SDS011;61651;45.508;12.232;2023-02-15T00:46:34;72.20;;;54.37;;
14007;SDS011;61651;45.508;12.232;2023-02-15T00:49:36;73.47;;;54.10;;
14007;SDS011;61651;45.508;12.232;2023-02-15T00:52:40;74.80;;;53.37;;
14007;SDS011;61651;45.508;12.232;2023-02-15T00:55:43;73.77;;;54.03;;
14007;SDS011;61651;45.508;12.232;2023-02-15T00:58:45;75.53;;;55.37;;
14007;SDS011;61651;45.508;12.232;2023-02-15T01:01:47;76.40;;;55.37;;
14007;SDS011;61651;45.508;12.232;2023-02-15T01:04:49;72.17;;;53.90;;
14007;SDS011;61651;45.508;12.232;2023-02-15T01:07:52;76.93;;;57.77;;
14007;SDS011;61651;45.508;12.232;2023-02-15T01:10:55;71.00;;;54.20;;
14007;SDS011;61651;45.508;12.232;2023-02-15T01:13:57;69.23;;;53.40;;
14007;SDS011;61651;45.508;12.232;2023-02-15T01:16:59;74.73;;;54.30;;
14007;SDS011;61651;45.508;12.232;2023-02-15T01:20:01;68.83;;;54.90;;
14007;SDS011;61651;45.508;12.232;2023-02-15T01:23:05;75.53;;;56.73;;
14007;SDS011;61651;45.508;12.232;2023-02-15T01:26:07;77.77;;;53.93;;
14007;SDS011;61651;45.508;12.232;2023-02-15T01:29:10;78.90;;;54.77;;
14007;SDS011;61651;45.508;12.232;2023-02-15T01:32:12;76.17;;;54.07;;
14007;SDS011;61651;45.508;12.232;2023-02-15T01:35:14;78.43;;;58.17;;
14007;SDS011;61651;45.508;12.232;2023-02-15T01:38:17;78.03;;;57.90;;
14007;SDS011;61651;45.508;12.232;2023-02-15T01:41:19;83.57;;;57.70;;
14007;SDS011;61651;45.508;12.232;2023-02-15T01:47:50;72.77;;;56.17;;
14007;SDS011;61651;45.508;12.232;2023-02-15T01:50:56;85.97;;;54.80;;
14007;SDS011;61651;45.508;12.232;2023-02-15T01:54:04;77.23;;;55.00;;
14007;SDS011;61651;45.508;12.232;2023-02-15T01:57:16;73.80;;;54.93;;
14007;SDS011;61651;45.508;12.232;2023-02-15T02:00:23;74.27;;;54.57;;
14007;SDS011;61651;45.508;12.232;2023-02-15T02:03:27;74.63;;;54.97;;
14007;SDS011;61651;45.508;12.232;2023-02-15T02:06:36;73.83;;;56.37;;
14007;SDS011;61651;45.508;12.232;2023-02-15T02:09:41;75.20;;;57.67;;
14007;SDS011;61651;45.508;12.232;2023-02-15T02:12:45;74.97;;;57.63;;
14007;SDS011;61651;45.508;12.232;2023-02-15T02:15:51;75.30;;;58.63;;
14007;SDS011;61651;45.508;12.232;2023-02-15T02:19:03;72.03;;;56.03;;
14007;SDS011;61651;45.508;12.232;2023-02-15T02:22:40;81.03;;;61.00;;
14007;SDS011;61651;45.508;12.232;2023-02-15T02:29:37;78.50;;;61.90;;
14007;SDS011;61651;45.508;12.232;2023-02-15T02:36:46;83.27;;;58.80;;
14007;SDS011;61651;45.508;12.232;2023-02-15T02:39:55;84.53;;;59.70;;
14007;SDS011;61651;45.508;12.232;2023-02-15T02:43:05;85.43;;;58.80;;
14007;SDS011;61651;45.508;12.232;2023-02-15T02:46:13;80.77;;;57.50;;
14007;SDS011;61651;45.508;12.232;2023-02-15T02:49:29;80.57;;;59.23;;
14007;SDS011;61651;45.508;12.232;2023-02-15T02:52:34;76.80;;;56.07;;
14007;SDS011;61651;45.508;12.232;2023-02-15T02:55:41;75.33;;;55.30;;
14007;SDS011;61651;45.508;12.232;2023-02-15T02:58:46;81.03;;;58.37;;
14007;SDS011;61651;45.508;12.232;2023-02-15T03:01:53;77.00;;;58.07;;
14007;SDS011;61651;45.508;12.232;2023-02-15T03:05:01;77.60;;;54.13;;
14007;SDS011;61651;45.508;12.232;2023-02-15T03:08:06;73.23;;;56.50;;
14007;SDS011;61651;45.508;12.232;2023-02-15T03:11:09;77.33;;;58.13;;
14007;SDS011;61651;45.508;12.232;2023-02-15T03:14:13;77.43;;;57.70;;
14007;SDS011;61651;45.508;12.232;2023-02-15T03:17:17;74.77;;;56.53;;
14007;SDS011;61651;45.508;12.232;2023-02-15T03:20:24;69.60;;;53.20;;
14007;SDS011;61651;45.508;12.232;2023-02-15T03:23:28;77.40;;;56.03;;
14007;SDS011;61651;45.508;12.232;2023-02-15T03:26:31;74.67;;;56.33;;
14007;SDS011;61651;45.508;12.232;2023-02-15T03:29:34;75.93;;;57.17;;
14007;SDS011;61651;45.508;12.232;2023-02-15T03:32:38;75.23;;;55.67;;
14007;SDS011;61651;45.508;12.232;2023-02-15T03:35:52;67.67;;;52.97;;
14007;SDS011;61651;45.508;12.232;2023-02-15T03:39:02;72.83;;;51.43;;
14007;SDS011;61651;45.508;12.232;2023-02-15T03:42:12;73.50;;;53.13;;
14007;SDS011;61651;45.508;12.232;2023-02-15T03:45:21;73.63;;;54.90;;
14007;SDS011;61651;45.508;12.232;2023-02-15T03:48:29;70.43;;;50.93;;
14007;SDS011;61651;45.508;12.232;2023-02-15T03:51:36;67.00;;;50.47;;
14007;SDS011;61651;45.508;12.232;2023-02-15T03:54:41;73.93;;;54.53;;
14007;SDS011;61651;45.508;12.232;2023-02-15T03:57:46;67.53;;;50.70;;
14007;SDS011;61651;45.508;12.232;2023-02-15T04:01:09;69.20;;;47.83;;
14007;SDS011;61651;45.508;12.232;2023-02-15T04:04:35;75.33;;;53.87;;
14007;SDS011;61651;45.508;12.232;2023-02-15T04:07:40;67.13;;;50.13;;
14007;SDS011;61651;45.508;12.232;2023-02-15T04:10:42;65.30;;;49.40;;
14007;SDS011;61651;45.508;12.232;2023-02-15T04:13:52;65.07;;;49.37;;
14007;SDS011;61651;45.508;12.232;2023-02-15T04:16:56;74.13;;;53.33;;
14007;SDS011;61651;45.508;12.232;2023-02-15T04:19:57;70.83;;;52.73;;
14007;SDS011;61651;45.508;12.232;2023-02-15T04:23:18;71.37;;;53.87;;
14007;SDS011;61651;45.508;12.232;2023-02-15T04:26:37;72.17;;;51.13;;
14007;SDS011;61651;45.508;12.232;2023-02-15T04:29:40;74.20;;;53.50;;
14007;SDS011;61651;45.508;12.232;2023-02-15T04:32:42;80.37;;;52.43;;
14007;SDS011;61651;45.508;12.232;2023-02-15T04:35:44;77.40;;;53.93;;
14007;SDS011;61651;45.508;12.232;2023-02-15T04:38:47;71.60;;;52.80;;
14007;SDS011;61651;45.508;12.232;2023-02-15T04:41:49;77.30;;;54.50;;
14007;SDS011;61651;45.508;12.232;2023-02-15T04:44:51;65.43;;;49.80;;
14007;SDS011;61651;45.508;12.232;2023-02-15T04:47:54;70.47;;;50.70;;
14007;SDS011;61651;45.508;12.232;2023-02-15T04:50:55;68.57;;;51.03;;
14007;SDS011;61651;45.508;12.232;2023-02-15T04:53:59;68.17;;;51.07;;
14007;SDS011;61651;45.508;12.232;2023-02-15T04:57:01;64.60;;;49.57;;
14007;SDS011;61651;45.508;12.232;2023-02-15T05:00:03;66.40;;;49.87;;
14007;SDS011;61651;45.508;12.232;2023-02-15T05:03:06;69.67;;;49.23;;
14007;SDS011;61651;45.508;12.232;2023-02-15T05:06:08;68.43;;;51.13;;
14007;SDS011;61651;45.508;12.232;2023-02-15T05:09:12;61.23;;;47.93;;
14007;SDS011;61651;45.508;12.232;2023-02-15T05:12:14;66.80;;;49.63;;
14007;SDS011;61651;45.508;12.232;2023-02-15T05:15:16;66.77;;;48.60;;
14007;SDS011;61651;45.508;12.232;2023-02-15T05:18:18;65.67;;;49.83;;
14007;SDS011;61651;45.508;12.232;2023-02-15T05:21:21;65.57;;;49.73;;
14007;SDS011;61651;45.508;12.232;2023-02-15T05:24:25;65.97;;;49.63;;
14007;SDS011;61651;45.508;12.232;2023-02-15T05:27:44;62.60;;;46.77;;
14007;SDS011;61651;45.508;12.232;2023-02-15T05:31:05;66.23;;;49.57;;
14007;SDS011;61651;45.508;12.232;2023-02-15T05:34:09;67.97;;;54.07;;
14007;SDS011;61651;45.508;12.232;2023-02-15T05:37:10;76.27;;;51.87;;
14007;SDS011;61651;45.508;12.232;2023-02-15T05:40:14;67.03;;;47.93;;
14007;SDS011;61651;45.508;12.232;2023-02-15T05:43:16;67.23;;;50.40;;
14007;SDS011;61651;45.508;12.232;2023-02-15T05:46:18;67.70;;;48.03;;
14007;SDS011;61651;45.508;12.232;2023-02-15T05:49:20;79.47;;;49.90;;
14007;SDS011;61651;45.508;12.232;2023-02-15T05:52:22;66.47;;;50.20;;
14007;SDS011;61651;45.508;12.232;2023-02-15T05:55:25;72.30;;;48.83;;
14007;SDS011;61651;45.508;12.232;2023-02-15T05:58:28;66.10;;;48.90;;
14007;SDS011;61651;45.508;12.232;2023-02-15T06:01:31;66.80;;;51.27;;
14007;SDS011;61651;45.508;12.232;2023-02-15T06:04:33;78.80;;;56.70;;
14007;SDS011;61651;45.508;12.232;2023-02-15T06:07:35;69.20;;;50.90;;
14007;SDS011;61651;45.508;12.232;2023-02-15T06:10:39;66.00;;;48.20;;
14007;SDS011;61651;45.508;12.232;2023-02-15T06:13:41;67.20;;;48.97;;
14007;SDS011;61651;45.508;12.232;2023-02-15T06:16:43;75.70;;;51.77;;
14007;SDS011;61651;45.508;12.232;2023-02-15T06:19:44;68.73;;;49.40;;
14007;SDS011;61651;45.508;12.232;2023-02-15T06:22:46;69.83;;;47.50;;
14007;SDS011;61651;45.508;12.232;2023-02-15T06:25:50;60.77;;;48.07;;
14007;SDS011;61651;45.508;12.232;2023-02-15T06:28:52;62.90;;;46.97;;
14007;SDS011;61651;45.508;12.232;2023-02-15T06:31:54;66.33;;;47.83;;
14007;SDS011;61651;45.508;12.232;2023-02-15T06:34:56;60.47;;;45.57;;
14007;SDS011;61651;45.508;12.232;2023-02-15T06:37:58;62.60;;;47.27;;
14007;SDS011;61651;45.508;12.232;2023-02-15T06:41:02;74.40;;;48.47;;
14007;SDS011;61651;45.508;12.232;2023-02-15T06:44:04;75.57;;;48.47;;
14007;SDS011;61651;45.508;12.232;2023-02-15T06:47:06;70.53;;;48.47;;
14007;SDS011;61651;45.508;12.232;2023-02-15T06:50:08;71.83;;;51.70;;
14007;SDS011;61651;45.508;12.232;2023-02-15T06:53:11;64.60;;;48.83;;
14007;SDS011;61651;45.508;12.232;2023-02-15T06:56:14;74.13;;;51.10;;
14007;SDS011;61651;45.508;12.232;2023-02-15T06:59:16;69.90;;;50.13;;
14007;SDS011;61651;45.508;12.232;2023-02-15T07:02:18;72.17;;;49.07;;
14007;SDS011;61651;45.508;12.232;2023-02-15T07:05:21;68.70;;;46.73;;
14007;SDS011;61651;45.508;12.232;2023-02-15T07:08:23;70.27;;;51.03;;
14007;SDS011;61651;45.508;12.232;2023-02-15T07:11:27;63.70;;;47.97;;
14007;SDS011;61651;45.508;12.232;2023-02-15T07:14:47;69.10;;;48.03;;
14007;SDS011;61651;45.508;12.232;2023-02-15T07:17:49;72.27;;;50.90;;
14007;SDS011;61651;45.508;12.232;2023-02-15T07:20:51;72.83;;;50.27;;
14007;SDS011;61651;45.508;12.232;2023-02-15T07:23:55;71.50;;;51.43;;
14007;SDS011;61651;45.508;12.232;2023-02-15T07:26:59;72.07;;;50.27;;
14007;SDS011;61651;45.508;12.232;2023-02-15T07:30:01;65.80;;;47.73;;
14007;SDS011;61651;45.508;12.232;2023-02-15T07:33:03;66.97;;;48.83;;
14007;SDS011;61651;45.508;12.232;2023-02-15T07:36:22;63.33;;;47.80;;
14007;SDS011;61651;45.508;12.232;2023-02-15T07:39:24;65.40;;;47.80;;
14007;SDS011;61651;45.508;12.232;2023-02-15T07:42:27;68.53;;;49.70;;
14007;SDS011;61651;45.508;12.232;2023-02-15T07:45:31;71.77;;;50.30;;
14007;SDS011;61651;45.508;12.232;2023-02-15T07:48:33;73.70;;;50.40;;
14007;SDS011;61651;45.508;12.232;2023-02-15T07:51:36;69.10;;;50.43;;
14007;SDS011;61651;45.508;12.232;2023-02-15T07:54:38;75.70;;;51.67;;
14007;SDS011;61651;45.508;12.232;2023-02-15T07:57:42;74.47;;;54.57;;
14007;SDS011;61651;45.508;12.232;2023-02-15T08:00:45;69.83;;;53.27;;
14007;SDS011;61651;45.508;12.232;2023-02-15T08:04:02;80.17;;;53.50;;
14007;SDS011;61651;45.508;12.232;2023-02-15T08:07:05;77.40;;;56.17;;
14007;SDS011;61651;45.508;12.232;2023-02-15T08:10:08;69.73;;;52.90;;
14007;SDS011;61651;45.508;12.232;2023-02-15T08:13:31;75.60;;;54.13;;
14007;SDS011;61651;45.508;12.232;2023-02-15T08:16:34;74.93;;;54.33;;
14007;SDS011;61651;45.508;12.232;2023-02-15T08:19:37;81.90;;;56.83;;
14007;SDS011;61651;45.508;12.232;2023-02-15T08:22:39;76.50;;;56.97;;
14007;SDS011;61651;45.508;12.232;2023-02-15T08:25:41;80.87;;;54.03;;
14007;SDS011;61651;45.508;12.232;2023-02-15T08:28:45;72.90;;;55.30;;
14007;SDS011;61651;45.508;12.232;2023-02-15T08:31:49;70.93;;;53.83;;
14007;SDS011;61651;45.508;12.232;2023-02-15T08:34:51;72.17;;;52.60;;
14007;SDS011;61651;45.508;12.232;2023-02-15T08:37:53;71.13;;;52.67;;
14007;SDS011;61651;45.508;12.232;2023-02-15T08:40:55;75.20;;;51.80;;
14007;SDS011;61651;45.508;12.232;2023-02-15T08:43:59;68.77;;;51.57;;
14007;SDS011;61651;45.508;12.232;2023-02-15T08:47:02;64.53;;;49.23;;
14007;SDS011;61651;45.508;12.232;2023-02-15T08:50:04;66.93;;;49.33;;
14007;SDS011;61651;45.508;12.232;2023-02-15T08:53:07;61.67;;;46.77;;
14007;SDS011;61651;45.508;12.232;2023-02-15T08:56:09;57.57;;;44.00;;
14007;SDS011;61651;45.508;12.232;2023-02-15T08:59:13;60.80;;;41.47;;
14007;SDS011;61651;45.508;12.232;2023-02-15T09:02:16;52.77;;;42.47;;
14007;SDS011;61651;45.508;12.232;2023-02-15T09:05:18;56.77;;;41.07;;
14007;SDS011;61651;45.508;12.232;2023-02-15T09:08:20;51.90;;;40.27;;
14007;SDS011;61651;45.508;12.232;2023-02-15T09:11:23;52.27;;;38.47;;
14007;SDS011;61651;45.508;12.232;2023-02-15T09:14:27;44.47;;;36.63;;
14007;SDS011;61651;45.508;12.232;2023-02-15T09:17:29;54.37;;;39.27;;
14007;SDS011;61651;45.508;12.232;2023-02-15T09:20:31;51.37;;;37.83;;
14007;SDS011;61651;45.508;12.232;2023-02-15T09:23:36;45.27;;;36.13;;
14007;SDS011;61651;45.508;12.232;2023-02-15T09:26:38;44.90;;;34.03;;
14007;SDS011;61651;45.508;12.232;2023-02-15T09:29:43;42.67;;;33.35;;
14007;SDS011;61651;45.508;12.232;2023-02-15T09:32:45;40.20;;;30.27;;
14007;SDS011;61651;45.508;12.232;2023-02-15T09:35:48;36.80;;;28.77;;
14007;SDS011;61651;45.508;12.232;2023-02-15T09:38:52;38.97;;;29.63;;
14007;SDS011;61651;45.508;12.232;2023-02-15T09:42:19;41.80;;;33.33;;
14007;SDS011;61651;45.508;12.232;2023-02-15T09:45:43;36.17;;;29.83;;
14007;SDS011;61651;45.508;12.232;2023-02-15T09:49:04;33.23;;;27.40;;
14007;SDS011;61651;45.508;12.232;2023-02-15T09:52:19;40.87;;;28.83;;
14007;SDS011;61651;45.508;12.232;2023-02-15T09:55:37;37.07;;;28.97;;
14007;SDS011;61651;45.508;12.232;2023-02-15T09:58:53;37.20;;;31.17;;
14007;SDS011;61651;45.508;12.232;2023-02-15T10:02:04;38.77;;;30.13;;
14007;SDS011;61651;45.508;12.232;2023-02-15T10:05:21;40.10;;;27.63;;
14007;SDS011;61651;45.508;12.232;2023-02-15T10:08:40;34.37;;;27.07;;
14007;SDS011;61651;45.508;12.232;2023-02-15T10:11:56;33.22;;;27.60;;
14007;SDS011;61651;45.508;12.232;2023-02-15T10:15:23;35.43;;;27.33;;
14007;SDS011;61651;45.508;12.232;2023-02-15T10:18:43;32.60;;;25.27;;
14007;SDS011;61651;45.508;12.232;2023-02-15T10:21:57;34.73;;;25.90;;
14007;SDS011;61651;45.508;12.232;2023-02-15T10:28:39;34.63;;;25.50;;
14007;SDS011;61651;45.508;12.232;2023-02-15T10:31:46;30.97;;;22.97;;
14007;SDS011;61651;45.508;12.232;2023-02-15T10:34:52;28.43;;;23.93;;
14007;SDS011;61651;45.508;12.232;2023-02-15T10:38:05;33.80;;;25.10;;
14007;SDS011;61651;45.508;12.232;2023-02-15T10:41:17;32.93;;;23.73;;
14007;SDS011;61651;45.508;12.232;2023-02-15T10:44:34;28.10;;;22.57;;
14007;SDS011;61651;45.508;12.232;2023-02-15T10:47:55;29.83;;;22.57;;
14007;SDS011;61651;45.508;12.232;2023-02-15T10:51:08;30.07;;;22.87;;
14007;SDS011;61651;45.508;12.232;2023-02-15T10:54:18;29.33;;;25.02;;
14007;SDS011;61651;45.508;12.232;2023-02-15T10:57:30;32.47;;;25.23;;
14007;SDS011;61651;45.508;12.232;2023-02-15T11:00:41;31.00;;;23.43;;
14007;SDS011;61651;45.508;12.232;2023-02-15T11:03:50;30.07;;;23.30;;
14007;SDS011;61651;45.508;12.232;2023-02-15T11:07:12;29.10;;;22.57;;
14007;SDS011;61651;45.508;12.232;2023-02-15T11:10:22;28.97;;;24.00;;
14007;SDS011;61651;45.508;12.232;2023-02-15T11:13:32;36.07;;;24.90;;
14007;SDS011;61651;45.508;12.232;2023-02-15T11:16:37;27.50;;;21.70;;
14007;SDS011;61651;45.508;12.232;2023-02-15T11:19:47;28.93;;;21.37;;
14007;SDS011;61651;45.508;12.232;2023-02-15T11:22:57;29.97;;;21.93;;
14007;SDS011;61651;45.508;12.232;2023-02-15T11:26:03;27.27;;;21.67;;
14007;SDS011;61651;45.508;12.232;2023-02-15T11:29:12;30.47;;;21.73;;
14007;SDS011;61651;45.508;12.232;2023-02-15T11:32:20;28.93;;;20.90;;
14007;SDS011;61651;45.508;12.232;2023-02-15T11:35:26;28.03;;;21.00;;
14007;SDS011;61651;45.508;12.232;2023-02-15T11:38:33;29.70;;;21.80;;
14007;SDS011;61651;45.508;12.232;2023-02-15T11:41:40;28.83;;;21.50;;
14007;SDS011;61651;45.508;12.232;2023-02-15T11:44:59;31.50;;;21.20;;
14007;SDS011;61651;45.508;12.232;2023-02-15T11:48:08;27.30;;;20.87;;
14007;SDS011;61651;45.508;12.232;2023-02-15T11:51:12;27.57;;;20.43;;
14007;SDS011;61651;45.508;12.232;2023-02-15T11:54:18;29.80;;;20.23;;
14007;SDS011;61651;45.508;12.232;2023-02-15T11:57:24;26.00;;;19.33;;
14007;SDS011;61651;45.508;12.232;2023-02-15T12:00:32;26.57;;;19.97;;
14007;SDS011;61651;45.508;12.232;2023-02-15T12:03:43;28.20;;;18.70;;
14007;SDS011;61651;45.508;12.232;2023-02-15T12:06:48;28.37;;;20.00;;
14007;SDS011;61651;45.508;12.232;2023-02-15T12:09:59;28.40;;;20.83;;
14007;SDS011;61651;45.508;12.232;2023-02-15T12:13:11;28.17;;;19.92;;
14007;SDS011;61651;45.508;12.232;2023-02-15T12:16:14;31.08;;;21.27;;
14007;SDS011;61651;45.508;12.232;2023-02-15T12:22:45;29.58;;;21.60;;
14007;SDS011;61651;45.508;12.232;2023-02-15T12:25:52;27.73;;;21.00;;
14007;SDS011;61651;45.508;12.232;2023-02-15T12:28:56;30.25;;;21.35;;
14007;SDS011;61651;45.508;12.232;2023-02-15T12:32:03;28.75;;;20.52;;
14007;SDS011;61651;45.508;12.232;2023-02-15T12:35:07;30.15;;;21.00;;
14007;SDS011;61651;45.508;12.232;2023-02-15T12:38:20;28.33;;;19.23;;
14007;SDS011;61651;45.508;12.232;2023-02-15T12:41:26;25.92;;;19.63;;
14007;SDS011;61651;45.508;12.232;2023-02-15T12:44:29;28.45;;;20.70;;
14007;SDS011;61651;45.508;12.232;2023-02-15T12:47:32;28.77;;;20.90;;
14007;SDS011;61651;45.508;12.232;2023-02-15T12:50:36;29.92;;;20.73;;
14007;SDS011;61651;45.508;12.232;2023-02-15T12:53:38;31.42;;;22.00;;
14007;SDS011;61651;45.508;12.232;2023-02-15T12:56:41;25.85;;;20.67;;
14007;SDS011;61651;45.508;12.232;2023-02-15T12:59:47;27.50;;;17.50;;
14007;SDS011;61651;45.508;12.232;2023-02-15T13:02:51;26.40;;;15.50;;
14007;SDS011;61651;45.508;12.232;2023-02-15T13:05:55;22.05;;;15.32;;
14007;SDS011;61651;45.508;12.232;2023-02-15T13:09:05;27.42;;;16.70;;
14007;SDS011;61651;45.508;12.232;2023-02-15T13:12:15;25.95;;;18.60;;
14007;SDS011;61651;45.508;12.232;2023-02-15T13:15:28;27.98;;;17.95;;
14007;SDS011;61651;45.508;12.232;2023-02-15T13:18:37;25.63;;;16.83;;
14007;SDS011;61651;45.508;12.232;2023-02-15T13:21:43;31.75;;;20.85;;
14007;SDS011;61651;45.508;12.232;2023-02-15T13:25:01;30.80;;;20.63;;
14007;SDS011;61651;45.508;12.232;2023-02-15T13:28:09;33.97;;;22.90;;
14007;SDS011;61651;45.508;12.232;2023-02-15T13:31:15;35.45;;;21.60;;
14007;SDS011;61651;45.508;12.232;2023-02-15T13:34:20;40.90;;;25.20;;
14007;SDS011;61651;45.508;12.232;2023-02-15T13:37:34;34.22;;;24.45;;
14007;SDS011;61651;45.508;12.232;2023-02-15T13:40:47;37.90;;;27.95;;
14007;SDS011;61651;45.508;12.232;2023-02-15T13:43:58;37.40;;;26.05;;
14007;SDS011;61651;45.508;12.232;2023-02-15T13:47:11;35.38;;;27.45;;
14007;SDS011;61651;45.508;12.232;2023-02-15T13:50:25;38.53;;;27.63;;
14007;SDS011;61651;45.508;12.232;2023-02-15T13:53:47;36.42;;;25.38;;
14007;SDS011;61651;45.508;12.232;2023-02-15T13:57:14;40.88;;;23.30;;
14007;SDS011;61651;45.508;12.232;2023-02-15T14:00:34;32.42;;;22.35;;
14007;SDS011;61651;45.508;12.232;2023-02-15T14:03:51;39.47;;;24.48;;
14007;SDS011;61651;45.508;12.232;2023-02-15T14:07:24;34.35;;;23.45;;
14007;SDS011;61651;45.508;12.232;2023-02-15T14:10:41;38.55;;;24.15;;
14007;SDS011;61651;45.508;12.232;2023-02-15T14:14:10;33.83;;;25.92;;
14007;SDS011;61651;45.508;12.232;2023-02-15T14:17:43;30.17;;;22.92;;
14007;SDS011;61651;45.508;12.232;2023-02-15T14:20:56;45.28;;;25.77;;
14007;SDS011;61651;45.508;12.232;2023-02-15T14:24:12;33.80;;;25.55;;
14007;SDS011;61651;45.508;12.232;2023-02-15T14:27:26;38.83;;;24.40;;
14007;SDS011;61651;45.508;12.232;2023-02-15T14:30:41;33.25;;;22.50;;
14007;SDS011;61651;45.508;12.232;2023-02-15T14:33:50;37.67;;;25.43;;
14007;SDS011;61651;45.508;12.232;2023-02-15T14:36:56;30.92;;;23.45;;
14007;SDS011;61651;45.508;12.232;2023-02-15T14:40:00;37.83;;;23.80;;
14007;SDS011;61651;45.508;12.232;2023-02-15T14:43:27;31.42;;;22.90;;
14007;SDS011;61651;45.508;12.232;2023-02-15T14:46:38;32.28;;;24.08;;
14007;SDS011;61651;45.508;12.232;2023-02-15T14:49:46;35.65;;;22.55;;
14007;SDS011;61651;45.508;12.232;2023-02-15T14:56:17;37.40;;;22.88;;
14007;SDS011;61651;45.508;12.232;2023-02-15T14:59:24;35.97;;;25.70;;
14007;SDS011;61651;45.508;12.232;2023-02-15T15:02:26;34.38;;;23.08;;
14007;SDS011;61651;45.508;12.232;2023-02-15T15:05:34;34.20;;;24.15;;
14007;SDS011;61651;45.508;12.232;2023-02-15T15:08:47;36.65;;;23.83;;
14007;SDS011;61651;45.508;12.232;2023-02-15T15:11:51;39.45;;;24.48;;
14007;SDS011;61651;45.508;12.232;2023-02-15T15:14:54;32.72;;;22.77;;
14007;SDS011;61651;45.508;12.232;2023-02-15T15:18:00;36.83;;;23.92;;
14007;SDS011;61651;45.508;12.232;2023-02-15T15:21:06;38.92;;;23.52;;
14007;SDS011;61651;45.508;12.232;2023-02-15T15:24:08;36.95;;;22.92;;
14007;SDS011;61651;45.508;12.232;2023-02-15T15:30:49;38.03;;;25.58;;
14007;SDS011;61651;45.508;12.232;2023-02-15T15:33:59;38.97;;;25.38;;
14007;SDS011;61651;45.508;12.232;2023-02-15T15:41:03;39.60;;;24.67;;
14007;SDS011;61651;45.508;12.232;2023-02-15T15:44:23;48.10;;;26.63;;
14007;SDS011;61651;45.508;12.232;2023-02-15T15:47:53;47.08;;;27.40;;
14007;SDS011;61651;45.508;12.232;2023-02-15T15:51:05;44.70;;;27.25;;
14007;SDS011;61651;45.508;12.232;2023-02-15T15:54:14;50.72;;;27.67;;
14007;SDS011;61651;45.508;12.232;2023-02-15T15:57:19;47.75;;;27.05;;
14007;SDS011;61651;45.508;12.232;2023-02-15T16:00:31;44.10;;;27.63;;
14007;SDS011;61651;45.508;12.232;2023-02-15T16:03:36;45.00;;;28.42;;
14007;SDS011;61651;45.508;12.232;2023-02-15T16:06:39;50.88;;;30.13;;
14007;SDS011;61651;45.508;12.232;2023-02-15T16:09:42;47.80;;;29.30;;
14007;SDS011;61651;45.508;12.232;2023-02-15T16:12:55;64.82;;;34.53;;
14007;SDS011;61651;45.508;12.232;2023-02-15T16:15:57;50.30;;;31.00;;
14007;SDS011;61651;45.508;12.232;2023-02-15T16:18:59;55.72;;;34.78;;
14007;SDS011;61651;45.508;12.232;2023-02-15T16:22:02;69.40;;;37.63;;
14007;SDS011;61651;45.508;12.232;2023-02-15T16:25:15;62.35;;;36.08;;
14007;SDS011;61651;45.508;12.232;2023-02-15T16:28:27;57.03;;;33.58;;
14007;SDS011;61651;45.508;12.232;2023-02-15T16:31:30;57.45;;;35.50;;
14007;SDS011;61651;45.508;12.232;2023-02-15T16:34:32;71.13;;;39.63;;
14007;SDS011;61651;45.508;12.232;2023-02-15T16:37:34;57.47;;;37.05;;
14007;SDS011;61651;45.508;12.232;2023-02-15T16:40:42;68.45;;;38.20;;
14007;SDS011;61651;45.508;12.232;2023-02-15T16:43:50;59.53;;;34.65;;
14007;SDS011;61651;45.508;12.232;2023-02-15T16:46:54;50.78;;;32.75;;
14007;SDS011;61651;45.508;12.232;2023-02-15T16:49:56;54.58;;;32.25;;
14007;SDS011;61651;45.508;12.232;2023-02-15T16:53:02;47.30;;;30.83;;
14007;SDS011;61651;45.508;12.232;2023-02-15T16:56:07;49.38;;;31.98;;
14007;SDS011;61651;45.508;12.232;2023-02-15T16:59:14;47.33;;;30.30;;
14007;SDS011;61651;45.508;12.232;2023-02-15T17:02:24;50.72;;;30.67;;
14007;SDS011;61651;45.508;12.232;2023-02-15T17:05:30;52.75;;;33.13;;
14007;SDS011;61651;45.508;12.232;2023-02-15T17:08:34;51.17;;;32.08;;
14007;SDS011;61651;45.508;12.232;2023-02-15T17:11:43;59.30;;;31.65;;
14007;SDS011;61651;45.508;12.232;2023-02-15T17:14:45;49.70;;;30.58;;
14007;SDS011;61651;45.508;12.232;2023-02-15T17:17:47;46.25;;;31.05;;
14007;SDS011;61651;45.508;12.232;2023-02-15T17:20:50;47.05;;;30.67;;
14007;SDS011;61651;45.508;12.232;2023-02-15T17:23:56;43.20;;;28.90;;
14007;SDS011;61651;45.508;12.232;2023-02-15T17:27:02;48.42;;;28.88;;
14007;SDS011;61651;45.508;12.232;2023-02-15T17:30:12;54.97;;;32.90;;
14007;SDS011;61651;45.508;12.232;2023-02-15T17:33:19;54.42;;;29.23;;
14007;SDS011;61651;45.508;12.232;2023-02-15T17:36:24;40.65;;;26.30;;
14007;SDS011;61651;45.508;12.232;2023-02-15T17:39:29;52.63;;;29.90;;
14007;SDS011;61651;45.508;12.232;2023-02-15T17:42:34;43.78;;;26.58;;
14007;SDS011;61651;45.508;12.232;2023-02-15T17:45:38;40.35;;;27.20;;
14007;SDS011;61651;45.508;12.232;2023-02-15T17:48:45;43.50;;;27.77;;
14007;SDS011;61651;45.508;12.232;2023-02-15T17:51:48;45.63;;;27.55;;
14007;SDS011;61651;45.508;12.232;2023-02-15T17:54:50;43.47;;;28.20;;
14007;SDS011;61651;45.508;12.232;2023-02-15T17:58:20;50.58;;;29.75;;
14007;SDS011;61651;45.508;12.232;2023-02-15T18:01:22;44.60;;;28.73;;
14007;SDS011;61651;45.508;12.232;2023-02-15T18:04:41;51.53;;;29.83;;
14007;SDS011;61651;45.508;12.232;2023-02-15T18:08:01;49.97;;;33.35;;
14007;SDS011;61651;45.508;12.232;2023-02-15T18:11:20;54.20;;;36.38;;
14007;SDS011;61651;45.508;12.232;2023-02-15T18:14:35;56.60;;;34.17;;
14007;SDS011;61651;45.508;12.232;2023-02-15T18:17:38;53.22;;;32.17;;
14007;SDS011;61651;45.508;12.232;2023-02-15T18:20:41;50.47;;;33.73;;
14007;SDS011;61651;45.508;12.232;2023-02-15T18:23:43;56.17;;;33.97;;
14007;SDS011;61651;45.508;12.232;2023-02-15T18:26:46;56.87;;;33.30;;